Time;durP1;ratioP1;P1;durP2;ratioP2;P2;SDS_P1;SDS_P2;PMS_P1;PMS_P2;Temp;Humidity;BMP_temperature;BMP_pressure;BME280_temperature;BME280_humidity;BME280_pressure;Samples;Min_cycle;Max_cycle;Signal;HPM_P1;HPM_P2
2022/01/27 00:00:03;;;;;;;32.90;11.13;;;;;;;-2.17;100.00;100434.53;5073813;28;20576;-85
2022/01/27 00:02:42;;;;;;;33.08;11.07;;;;;;;-2.09;100.00;100442.16;5068722;28;20049;-85
2022/01/27 00:05:16;;;;;;;24.90;9.43;;;;;;;-2.26;100.00;100418.13;5071433;28;20048;-85
2022/01/27 00:07:44;;;;;;;29.03;11.23;;;;;;;-2.15;100.00;100439.81;5072675;28;20102;-84
2022/01/27 00:10:23;;;;;;;32.10;12.30;;;;;;;-2.18;100.00;100435.47;5073730;28;20428;-85
2022/01/27 00:12:51;;;;;;;29.63;11.10;;;;;;;-2.10;100.00;100434.25;5073290;28;20131;-84
2022/01/27 00:15:22;;;;;;;25.60;8.80;;;;;;;-2.08;100.00;100443.88;5073477;28;20048;-84
2022/01/27 00:17:57;;;;;;;30.90;11.73;;;;;;;-2.22;100.00;100428.56;5073322;28;20127;-85
2022/01/27 00:20:31;;;;;;;28.00;10.53;;;;;;;-2.20;100.00;100426.69;5073406;28;20056;-85
2022/01/27 00:22:58;;;;;;;28.77;11.97;;;;;;;-2.17;100.00;100425.66;5073374;28;20045;-85
2022/01/27 00:25:24;;;;;;;29.97;11.50;;;;;;;-2.17;100.00;100417.66;5073205;28;20053;-84
2022/01/27 00:27:51;;;;;;;32.53;12.60;;;;;;;-2.05;100.00;100416.22;5073556;28;20072;-84
2022/01/27 00:30:20;;;;;;;31.93;12.50;;;;;;;-1.99;100.00;100424.81;5073772;28;20054;-85
2022/01/27 00:32:46;;;;;;;28.43;10.40;;;;;;;-2.03;100.00;100419.66;5073236;28;20045;-84
2022/01/27 00:35:15;;;;;;;27.50;9.37;;;;;;;-2.17;100.00;100412.34;5074045;28;20147;-85
2022/01/27 00:37:45;;;;;;;24.27;10.43;;;;;;;-2.32;100.00;100395.28;5072624;28;20119;-85
2022/01/27 00:40:16;;;;;;;38.03;11.53;;;;;;;-2.16;100.00;100422.94;5067752;28;20496;-84
2022/01/27 00:42:45;;;;;;;22.97;10.20;;;;;;;-2.23;100.00;100436.63;5070256;28;20080;-84
2022/01/27 00:45:12;;;;;;;24.93;10.77;;;;;;;-2.28;100.00;100420.84;5073765;28;20044;-86
2022/01/27 00:47:38;;;;;;;27.60;10.80;;;;;;;-2.24;100.00;100434.88;5073961;28;20120;-84
2022/01/27 00:50:06;;;;;;;28.87;11.17;;;;;;;-2.28;100.00;100418.19;5073661;28;20036;-86
2022/01/27 00:52:37;;;;;;;29.30;11.83;;;;;;;-2.35;100.00;100422.94;5072911;28;20048;-84
2022/01/27 00:55:07;;;;;;;26.53;10.37;;;;;;;-2.28;100.00;100426.19;5071632;28;20052;-84
2022/01/27 00:57:51;;;;;;;;;;;;;;;-2.22;100.00;100430.38;5074651;28;20040;-84
2022/01/27 01:00:24;;;;;;;28.53;10.40;;;;;;;-2.20;100.00;100424.03;5072185;28;19924;-84
2022/01/27 01:02:56;;;;;;;25.63;10.33;;;;;;;-2.27;100.00;100409.28;5071924;28;20045;-84
2022/01/27 01:05:39;;;;;;;22.17;8.93;;;;;;;-2.27;100.00;100414.59;5073614;28;20132;-84
2022/01/27 01:08:46;;;;;;;22.80;8.97;;;;;;;-2.28;100.00;100407.53;5065135;28;20037;-84
2022/01/27 01:16:43;;;;;;;21.85;9.32;;;;;;;-2.17;100.00;100428.34;5050515;28;20060;-84
2022/01/27 01:19:20;;;;;;;27.63;9.40;;;;;;;-2.41;100.00;100401.06;5073232;28;20052;-84
2022/01/27 01:22:09;;;;;;;19.63;9.00;;;;;;;-2.47;100.00;100404.84;5073552;28;20056;-84
2022/01/27 01:30:34;;;;;;;21.20;9.27;;;;;;;-2.44;100.00;100414.50;5077000;28;20066;-84
2022/01/27 01:33:04;;;;;;;20.47;8.80;;;;;;;-2.40;100.00;100426.75;5075746;28;20476;-86
2022/01/27 01:35:46;;;;;;;25.37;10.13;;;;;;;-2.42;100.00;100397.53;5076762;28;20051;-83
2022/01/27 01:38:13;;;;;;;26.37;9.97;;;;;;;-2.27;100.00;100417.25;5076460;28;20508;-84
2022/01/27 01:40:43;;;;;;;24.90;8.93;;;;;;;-2.39;100.00;100404.53;5077128;28;20496;-84
2022/01/27 01:43:11;;;;;;;31.05;10.02;;;;;;;-2.47;100.00;100396.00;5076821;28;20169;-84
2022/01/27 01:45:37;;;;;;;28.67;10.07;;;;;;;-2.39;100.00;100409.84;5076865;28;20416;-84
2022/01/27 01:48:05;;;;;;;27.13;11.33;;;;;;;-2.38;100.00;100408.91;5076654;28;20051;-84
2022/01/27 01:50:32;;;;;;;28.03;11.37;;;;;;;-2.38;100.00;100414.22;5074933;28;20072;-84
2022/01/27 01:52:59;;;;;;;27.00;10.10;;;;;;;-2.30;100.00;100401.44;5076661;28;20494;-84
2022/01/27 01:55:26;;;;;;;26.80;9.10;;;;;;;-2.26;100.00;100392.31;5058455;28;20506;-84
2022/01/27 01:57:52;;;;;;;34.03;10.53;;;;;;;-2.37;100.00;100374.19;5076673;28;20539;-84
2022/01/27 02:00:21;;;;;;;24.60;10.10;;;;;;;-2.34;100.00;100387.38;5076558;28;20087;-84
2022/01/27 02:02:47;;;;;;;26.33;10.73;;;;;;;-2.31;100.00;100386.38;5075348;28;20044;-84
2022/01/27 02:05:14;;;;;;;26.37;11.20;;;;;;;-2.34;100.00;100374.06;5067690;28;20045;-84
2022/01/27 02:07:56;;;;;;;28.60;10.93;;;;;;;-2.27;100.00;100377.31;5057955;28;20136;-84
2022/01/27 02:10:38;;;;;;;30.37;11.93;;;;;;;-2.24;100.00;100369.16;5061139;28;20077;-84
2022/01/27 02:18:39;;;;;;;29.33;10.63;;;;;;;-2.34;100.00;100354.56;5075895;28;20423;-84
2022/01/27 02:21:07;;;;;;;26.27;10.10;;;;;;;-2.32;100.00;100369.53;5076801;28;20075;-84
2022/01/27 02:23:34;;;;;;;23.53;8.53;;;;;;;-2.38;100.00;100376.94;5075914;28;20045;-84
2022/01/27 02:26:00;;;;;;;24.40;10.63;;;;;;;-2.39;100.00;100391.22;5067956;28;20044;-84
2022/01/27 02:28:27;;;;;;;28.37;10.43;;;;;;;-2.50;100.00;100371.25;5075982;28;20135;-84
2022/01/27 02:30:53;;;;;;;27.93;10.90;;;;;;;-2.42;100.00;100378.88;5075000;28;20105;-84
2022/01/27 02:33:30;;;;;;;35.57;12.47;;;;;;;-2.43;100.00;100373.63;5075477;28;20152;-84
2022/01/27 02:35:56;;;;;;;24.07;9.70;;;;;;;-2.56;100.00;100366.22;5074441;28;20502;-84
2022/01/27 02:38:24;;;;;;;28.53;11.83;;;;;;;-2.45;100.00;100375.50;5075477;28;20513;-85
2022/01/27 02:41:00;;;;;;;27.57;9.87;;;;;;;-2.45;100.00;100375.50;5064373;28;20489;-84
2022/01/27 02:43:26;;;;;;;31.77;10.67;;;;;;;-2.38;100.00;100376.94;5069484;28;20483;-84
2022/01/27 02:46:00;;;;;;;38.37;11.83;;;;;;;-2.42;100.00;100370.91;5075206;28;20472;-84
2022/01/27 02:48:27;;;;;;;29.50;11.27;;;;;;;-2.39;100.00;100383.22;5081163;28;20055;-84
2022/01/27 02:50:54;;;;;;;26.73;10.23;;;;;;;-2.35;100.00;100383.00;5075143;28;20049;-85
2022/01/27 02:53:21;;;;;;;32.53;10.17;;;;;;;-2.44;100.00;100385.22;5074943;28;20072;-84
2022/01/27 02:55:49;;;;;;;19.77;8.57;;;;;;;-2.39;100.00;100392.06;5075377;28;20052;-85
2022/01/27 02:58:16;;;;;;;23.77;8.77;;;;;;;-2.45;100.00;100386.13;5075139;28;20139;-84
2022/01/27 03:00:43;;;;;;;31.50;11.53;;;;;;;-2.41;100.00;100374.41;5075277;28;20055;-84
2022/01/27 03:03:10;;;;;;;27.80;10.43;;;;;;;-2.49;100.00;100394.28;5073782;28;20641;-84
2022/01/27 03:05:36;;;;;;;33.17;10.53;;;;;;;-2.47;100.00;100388.88;5070467;28;20144;-84
2022/01/27 03:08:06;;;;;;;24.77;10.00;;;;;;;-2.54;100.00;100377.66;5073970;28;20044;-84
2022/01/27 03:10:39;;;;;;;30.33;10.52;;;;;;;-2.46;100.00;100387.94;5072173;28;20074;-84
2022/01/27 03:13:07;;;;;;;25.87;10.23;;;;;;;-2.52;100.00;100378.44;5074669;28;20381;-84
2022/01/27 03:15:33;;;;;;;32.20;10.00;;;;;;;-2.44;100.00;100369.25;5072161;28;20040;-85
2022/01/27 03:18:00;;;;;;;27.33;10.63;;;;;;;-2.39;100.00;100391.22;5060443;28;20053;-84
2022/01/27 03:20:32;;;;;;;26.17;9.50;;;;;;;-2.49;100.00;100396.09;5073093;28;20041;-84
2022/01/27 03:22:58;;;;;;;26.33;10.20;;;;;;;-2.60;100.00;100361.13;5074402;28;20052;-85
2022/01/27 03:25:25;;;;;;;33.07;11.37;;;;;;;-2.46;100.00;100373.78;5073944;28;20404;-84
2022/01/27 03:27:52;;;;;;;35.80;12.70;;;;;;;-2.39;100.00;100365.44;5071460;28;20053;-84
2022/01/27 03:30:20;;;;;;;42.17;10.97;;;;;;;-2.34;100.00;100370.53;5069175;28;20051;-84
2022/01/27 03:32:47;;;;;;;30.00;11.73;;;;;;;-2.38;100.00;100358.28;5073669;28;20063;-84
2022/01/27 03:35:17;;;;;;;31.87;12.00;;;;;;;-2.38;100.00;100374.28;5074098;28;20080;-85
2022/01/27 03:37:46;;;;;;;28.90;10.63;;;;;;;-2.41;100.00;100358.44;5074263;28;20068;-84
2022/01/27 03:40:13;;;;;;;37.42;12.23;;;;;;;-2.36;100.00;100361.75;5073831;28;20048;-84
2022/01/27 03:42:45;;;;;;;28.03;10.83;;;;;;;-2.47;100.00;100364.06;5073872;28;20083;-85
2022/01/27 03:45:14;;;;;;;32.93;11.80;;;;;;;-2.52;100.00;100346.50;5073950;28;20045;-84
2022/01/27 03:47:44;;;;;;;37.00;11.23;;;;;;;-2.39;100.00;100365.44;5073140;28;20055;-84
2022/01/27 03:50:11;;;;;;;36.53;11.73;;;;;;;-2.38;100.00;100345.84;5073072;28;20048;-84
2022/01/27 03:52:37;;;;;;;41.40;12.20;;;;;;;-2.38;100.00;100348.53;5070440;28;20044;-84
2022/01/27 03:55:09;;;;;;;34.70;12.20;;;;;;;-2.51;100.00;100329.59;5071276;28;20131;-85
2022/01/27 03:57:35;;;;;;;35.10;11.43;;;;;;;-2.49;100.00;100325.03;5071880;28;20044;-85
2022/01/27 04:00:03;;;;;;;41.40;13.43;;;;;;;-2.42;100.00;100322.97;5063119;28;20045;-85
2022/01/27 04:02:29;;;;;;;30.57;11.07;;;;;;;-2.57;100.00;100305.06;5057298;28;20090;-85
2022/01/27 04:04:57;;;;;;;29.77;11.33;;;;;;;-2.57;100.00;100307.72;5073579;28;20146;-85
2022/01/27 04:07:24;;;;;;;36.00;14.03;;;;;;;-2.48;100.00;100312.59;5071622;28;20095;-85
2022/01/27 04:09:50;;;;;;;38.67;11.40;;;;;;;-2.47;100.00;100301.00;5067878;28;20099;-85
2022/01/27 04:12:19;;;;;;;38.33;12.53;;;;;;;-2.37;100.00;100307.59;5073226;28;20049;-85
2022/01/27 04:14:46;;;;;;;40.22;12.27;;;;;;;-2.35;100.00;100310.19;5074233;28;20045;-85
2022/01/27 04:17:13;;;;;;;38.43;14.33;;;;;;;-2.21;100.00;100321.06;5074600;28;20122;-85
2022/01/27 04:19:39;;;;;;;42.57;13.43;;;;;;;-2.35;100.00;100311.09;5073958;28;20099;-84
2022/01/27 04:22:07;;;;;;;29.73;11.67;;;;;;;-2.40;100.00;100315.75;5073965;28;20125;-85
2022/01/27 04:24:34;;;;;;;34.93;11.30;;;;;;;-2.63;100.00;100294.72;5073511;28;20053;-84
2022/01/27 04:27:05;;;;;;;30.20;12.47;;;;;;;-2.46;100.00;100323.19;5074161;28;20234;-85
2022/01/27 04:29:35;;;;;;;30.77;9.57;;;;;;;-2.62;100.00;100305.28;5064591;28;20052;-84
2022/01/27 04:32:07;;;;;;;37.37;12.00;;;;;;;-2.55;100.00;100328.00;5072955;28;20052;-84
2022/01/27 04:34:36;;;;;;;36.97;13.50;;;;;;;-2.55;100.00;100341.31;5090083;28;20094;-85
2022/01/27 04:37:03;;;;;;;34.55;13.15;;;;;;;-2.61;100.00;100320.31;5054071;28;20053;-84
2022/01/27 04:39:38;;;;;;;43.90;14.00;;;;;;;-2.46;100.00;100337.34;5054351;28;20439;-85
2022/01/27 04:42:11;;;;;;;46.33;15.23;;;;;;;-2.54;100.00;100321.75;5056860;28;20075;-85
2022/01/27 04:44:46;;;;;;;40.43;13.63;;;;;;;-2.62;100.00;100305.28;5065701;28;20048;-84
2022/01/27 04:47:19;;;;;;;47.07;14.50;;;;;;;-2.50;100.00;100314.47;5065337;28;20102;-85
2022/01/27 04:49:46;;;;;;;44.03;12.63;;;;;;;-2.44;100.00;100322.16;5072837;28;20049;-83
2022/01/27 04:52:13;;;;;;;48.37;15.70;;;;;;;-2.37;100.00;100320.94;5073455;28;20045;-84
2022/01/27 04:54:53;;;;;;;39.23;13.57;;;;;;;-2.44;100.00;100308.84;5073694;28;20052;-84
2022/01/27 04:57:21;;;;;;;41.50;13.67;;;;;;;-2.36;100.00;100328.00;5073930;28;20049;-85
2022/01/27 04:59:47;;;;;;;43.87;14.50;;;;;;;-2.32;100.00;100323.38;5077014;28;20056;-84
2022/01/27 05:02:20;;;;;;;49.73;13.27;;;;;;;-2.39;100.00;100308.66;5077120;28;20480;-85
2022/01/27 05:04:50;;;;;;;41.47;14.40;;;;;;;-2.40;100.00;100290.94;5077850;28;20052;-84
2022/01/27 05:07:16;;;;;;;40.25;15.15;;;;;;;-2.37;100.00;100296.97;5075993;28;20048;-84
2022/01/27 05:09:52;;;;;;;46.27;15.53;;;;;;;-2.38;100.00;100299.69;5077487;28;20042;-84
2022/01/27 05:12:31;;;;;;;60.57;15.67;;;;;;;-2.54;100.00;100284.47;5077779;28;20057;-89
2022/01/27 05:14:59;;;;;;;49.72;13.15;;;;;;;-2.45;100.00;100290.28;5077591;28;20067;-85
2022/01/27 05:17:26;;;;;;;46.53;13.37;;;;;;;-2.60;100.00;100291.91;5077410;28;20061;-85
2022/01/27 05:19:53;;;;;;;45.43;14.70;;;;;;;-2.52;100.00;100293.22;5077150;28;20494;-85
2022/01/27 05:22:19;;;;;;;51.90;15.50;;;;;;;-2.43;100.00;100296.41;5074068;28;20293;-85
2022/01/27 05:24:47;;;;;;;53.70;14.60;;;;;;;-2.53;100.00;100275.56;5076885;28;20048;-85
2022/01/27 05:27:14;;;;;;;57.10;15.20;;;;;;;-2.54;100.00;100278.28;5071124;28;20044;-85
2022/01/27 05:29:41;;;;;;;22.83;9.10;;;;;;;-2.57;100.00;100291.75;5066557;28;20590;-84
2022/01/27 05:32:08;;;;;;;52.80;15.10;;;;;;;-2.60;100.00;100291.91;5077060;28;20498;-85
2022/01/27 05:34:35;;;;;;;46.63;16.33;;;;;;;-2.61;100.00;100299.00;5077229;28;20790;-85
2022/01/27 05:37:02;;;;;;;45.57;13.57;;;;;;;-2.61;100.00;100316.78;5077512;28;20091;-85
2022/01/27 05:39:28;;;;;;;44.43;14.07;;;;;;;-2.67;100.00;100304.63;5074027;28;20399;-84
2022/01/27 05:41:56;;;;;;;41.50;14.60;;;;;;;-2.51;100.00;100310.09;5077082;28;20068;-85
2022/01/27 05:44:23;;;;;;;52.70;15.07;;;;;;;-2.58;100.00;100295.34;5076936;28;20056;-85
2022/01/27 05:46:50;;;;;;;48.37;14.50;;;;;;;-2.60;100.00;100289.25;5076834;28;20076;-85
2022/01/27 05:49:19;;;;;;;37.97;12.93;;;;;;;-2.64;100.00;100287.66;5076809;28;20053;-85
2022/01/27 05:51:46;;;;;;;51.13;13.50;;;;;;;-2.50;100.00;100320.66;5076678;28;20041;-85
2022/01/27 05:54:13;;;;;;;56.40;15.10;;;;;;;-2.53;100.00;100326.16;5076741;28;20054;-85
2022/01/27 05:56:39;;;;;;;48.07;15.03;;;;;;;-2.62;100.00;100296.41;5076176;28;20044;-85
2022/01/27 05:59:08;;;;;;;44.07;14.20;;;;;;;-2.50;100.00;100325.13;5075012;28;20060;-85
2022/01/27 06:01:34;;;;;;;50.33;14.87;;;;;;;-2.53;100.00;100318.16;5066123;28;20049;-85
2022/01/27 06:04:02;;;;;;;48.97;13.73;;;;;;;-2.58;100.00;100306.00;5071295;28;20128;-85
2022/01/27 06:06:30;;;;;;;51.23;14.97;;;;;;;-2.52;100.00;100313.69;5076018;28;20048;-85
2022/01/27 06:08:57;;;;;;;41.17;12.30;;;;;;;-2.59;100.00;100305.13;5075539;28;20051;-85
2022/01/27 06:11:23;;;;;;;53.03;16.20;;;;;;;-2.59;100.00;100302.47;5074618;28;20048;-85
2022/01/27 06:13:50;;;;;;;53.73;16.43;;;;;;;-2.58;100.00;100300.66;5073307;28;20132;-85
2022/01/27 06:16:18;;;;;;;52.33;14.93;;;;;;;-2.61;100.00;100316.78;5076231;28;20055;-85
2022/01/27 06:18:45;;;;;;;51.80;15.53;;;;;;;-2.66;100.00;100306.34;5076047;28;20139;-85
2022/01/27 06:21:13;;;;;;;50.90;14.43;;;;;;;-2.71;100.00;100301.25;5076429;28;20052;-85
2022/01/27 06:23:40;;;;;;;46.30;14.70;;;;;;;-2.74;100.00;100305.84;5068146;28;20048;-85
2022/01/27 06:26:07;;;;;;;46.80;15.00;;;;;;;-2.60;100.00;100322.03;5068219;28;20048;-85
2022/01/27 06:28:33;;;;;;;50.67;15.90;;;;;;;-2.76;100.00;100300.59;5074897;28;20048;-86
2022/01/27 06:31:00;;;;;;;55.37;14.93;;;;;;;-2.70;100.00;100305.63;5068508;28;20051;-89
2022/01/27 06:33:28;;;;;;;41.27;13.20;;;;;;;-2.62;100.00;100323.91;5073206;28;20058;-85
2022/01/27 06:35:55;;;;;;;50.17;15.27;;;;;;;-2.77;100.00;100314.84;5068819;28;20123;-85
2022/01/27 06:38:24;;;;;;;31.63;12.07;;;;;;;-2.66;100.00;100330.31;5068357;28;20052;-84
2022/01/27 06:40:51;;;;;;;45.90;12.87;;;;;;;-2.61;100.00;100327.44;5056878;28;20048;-85
2022/01/27 06:43:17;;;;;;;36.03;9.97;;;;;;;-2.69;100.00;100322.47;5068153;28;20292;-85
2022/01/27 06:45:44;;;;;;;50.00;16.90;;;;;;;-2.76;100.00;100329.88;5073636;28;20047;-85
2022/01/27 06:48:12;;;;;;;52.20;17.63;;;;;;;-2.77;100.00;100320.19;5072078;28;20052;-85
2022/01/27 06:50:40;;;;;;;49.47;14.97;;;;;;;-2.75;100.00;100310.31;5065655;28;20049;-85
2022/01/27 06:53:09;;;;;;;51.90;16.33;;;;;;;-2.68;100.00;100311.75;5068165;28;20048;-84
2022/01/27 06:55:37;;;;;;;43.03;15.50;;;;;;;-2.62;100.00;100326.59;5075405;28;20144;-84
2022/01/27 06:58:05;;;;;;;53.13;15.27;;;;;;;-2.64;100.00;100323.13;5073407;28;20048;-84
2022/01/27 07:00:31;;;;;;;60.43;18.10;;;;;;;-2.70;100.00;100324.25;5088086;28;20461;-84
2022/01/27 07:02:59;;;;;;;59.37;15.77;;;;;;;-2.62;100.00;100329.25;5065765;28;20401;-84
2022/01/27 07:05:30;;;;;;;56.03;17.13;;;;;;;-2.68;100.00;100332.16;5065529;28;20053;-84
2022/01/27 07:07:59;;;;;;;51.70;17.07;;;;;;;-2.67;100.00;100339.22;5079930;28;20484;-84
2022/01/27 07:10:25;;;;;;;50.77;15.07;;;;;;;-2.62;100.00;100341.66;5073235;28;20070;-84
2022/01/27 07:12:54;;;;;;;35.90;14.40;;;;;;;-2.65;100.00;100350.66;5073275;28;20412;-84
2022/01/27 07:15:21;;;;;;;55.10;16.83;;;;;;;-2.74;100.00;100349.31;5064700;28;20067;-84
2022/01/27 07:17:48;;;;;;;41.83;15.40;;;;;;;-2.73;100.00;100358.16;5071382;28;20272;-83
2022/01/27 07:20:15;;;;;;;49.83;16.83;;;;;;;-2.76;100.00;100348.50;5073026;28;20121;-84
2022/01/27 07:22:42;;;;;;;48.50;15.37;;;;;;;-2.75;100.00;100366.22;5072896;28;20178;-84
2022/01/27 07:25:10;;;;;;;52.40;16.93;;;;;;;-2.95;100.00;100347.63;5072386;28;20102;-84
2022/01/27 07:27:37;;;;;;;52.80;15.23;;;;;;;-2.93;100.00;100340.44;5072236;28;20497;-84
2022/01/27 07:30:06;;;;;;;47.60;13.37;;;;;;;-2.81;100.00;100363.84;5071692;28;20044;-84
2022/01/27 07:32:32;;;;;;;40.27;13.50;;;;;;;-2.76;100.00;100371.59;5072913;28;20057;-84
2022/01/27 07:35:01;;;;;;;57.03;15.83;;;;;;;-2.82;100.00;100366.56;5071415;28;20424;-84
2022/01/27 07:37:27;;;;;;;37.97;13.23;;;;;;;-2.85;100.00;100376.41;5072408;28;20048;-84
2022/01/27 07:39:54;;;;;;;44.03;14.73;;;;;;;-2.80;100.00;100370.00;5072750;28;20052;-84
2022/01/27 07:42:23;;;;;;;36.80;13.67;;;;;;;-2.87;100.00;100356.13;5072774;28;20044;-84
2022/01/27 07:44:49;;;;;;;42.17;13.95;;;;;;;-3.02;100.00;100341.72;5072456;28;20048;-84
2022/01/27 07:47:16;;;;;;;38.33;13.50;;;;;;;-2.92;100.00;100352.81;5072326;28;20399;-84
2022/01/27 07:49:43;;;;;;;43.67;16.50;;;;;;;-2.89;100.00;100356.22;5066932;28;20492;-84
2022/01/27 07:52:10;;;;;;;35.43;11.87;;;;;;;-2.90;100.00;100354.47;5065510;28;20377;-84
2022/01/27 07:54:37;;;;;;;36.20;13.13;;;;;;;-2.93;100.00;100356.41;5069746;28;20135;-84
2022/01/27 07:57:05;;;;;;;40.47;14.17;;;;;;;-3.06;100.00;100342.78;5067388;28;20527;-84
2022/01/27 07:59:33;;;;;;;36.43;10.57;;;;;;;-2.91;100.00;100355.38;5065588;28;20098;-84
2022/01/27 08:02:00;;;;;;;40.07;13.97;;;;;;;-2.98;100.00;100347.75;5070063;28;20040;-84
2022/01/27 08:04:26;;;;;;;40.23;11.37;;;;;;;-2.87;100.00;100364.13;5072169;28;20056;-84
2022/01/27 08:06:53;;;;;;;39.60;12.80;;;;;;;-2.90;100.00;100356.28;5072291;28;20087;-84
2022/01/27 08:09:20;;;;;;;43.00;12.43;;;;;;;-2.96;100.00;100340.59;5073551;28;20078;-84
2022/01/27 08:11:47;;;;;;;39.77;14.97;;;;;;;-2.89;100.00;100347.34;5072905;28;20110;-84
2022/01/27 08:14:17;;;;;;;36.10;11.40;;;;;;;-2.90;100.00;100341.16;5071312;28;20049;-84
2022/01/27 08:16:48;;;;;;;41.60;12.80;;;;;;;-3.01;100.00;100327.50;5060262;28;20127;-85
2022/01/27 08:19:15;;;;;;;36.70;13.27;;;;;;;-2.84;100.00;100353.34;5065199;28;20084;-84
2022/01/27 08:21:42;;;;;;;40.80;13.37;;;;;;;-2.79;100.00;100353.13;5063869;28;20476;-84
2022/01/27 08:24:13;;;;;;;33.87;11.47;;;;;;;-2.84;100.00;100345.34;5071956;28;20052;-84
2022/01/27 08:26:42;;;;;;;33.33;11.13;;;;;;;-2.89;100.00;100324.28;5071795;28;20048;-84
2022/01/27 08:29:14;;;;;;;27.75;10.07;;;;;;;-2.84;100.00;100348.00;5072521;28;20067;-84
2022/01/27 08:31:56;;;;;;;38.37;10.00;;;;;;;-2.81;100.00;100336.38;5073441;28;20057;-84
2022/01/27 08:34:31;;;;;;;29.57;8.27;;;;;;;-2.93;100.00;100317.34;5074585;28;20461;-85
2022/01/27 08:37:00;;;;;;;17.23;7.50;;;;;;;-2.89;100.00;100316.28;5075541;28;20049;-85
2022/01/27 08:39:30;;;;;;;25.10;8.47;;;;;;;-2.86;100.00;100332.09;5075548;28;20049;-85
2022/01/27 08:41:58;;;;;;;36.07;12.10;;;;;;;-2.88;100.00;100325.13;5076208;28;20127;-84
2022/01/27 08:44:25;;;;;;;26.37;7.57;;;;;;;-2.80;100.00;100336.28;5074162;28;20045;-84
2022/01/27 08:46:52;;;;;;;22.23;9.23;;;;;;;-2.90;100.00;100309.22;5076364;28;20492;-84
2022/01/27 08:49:26;;;;;;;24.53;10.70;;;;;;;-2.72;100.00;100334.13;5075194;28;20044;-84
2022/01/27 08:51:56;;;;;;;31.53;10.50;;;;;;;-2.68;100.00;100324.19;5075315;28;20454;-84
2022/01/27 08:54:33;;;;;;;27.67;10.83;;;;;;;-2.60;100.00;100330.03;5074088;28;20496;-85
2022/01/27 08:57:03;;;;;;;28.70;9.47;;;;;;;-2.65;100.00;100326.69;5074352;28;20052;-84
2022/01/27 08:59:45;;;;;;;25.95;9.68;;;;;;;-2.73;100.00;100319.06;5068916;28;20057;-84
2022/01/27 09:02:12;;;;;;;29.67;10.37;;;;;;;-2.67;100.00;100329.44;5075411;28;20059;-84
2022/01/27 09:04:47;;;;;;;35.53;11.50;;;;;;;-2.72;100.00;100307.50;5074803;28;20155;-83
2022/01/27 09:07:33;;;;;;;31.00;11.87;;;;;;;-2.67;100.00;100308.13;5074587;28;20065;-84
2022/01/27 09:10:00;;;;;;;29.03;11.20;;;;;;;-2.74;100.00;100308.50;5066669;28;20497;-84
2022/01/27 09:12:34;;;;;;;26.23;9.77;;;;;;;-2.62;100.00;100312.38;5074475;28;20068;-84
2022/01/27 09:15:03;;;;;;;31.07;12.10;;;;;;;-2.59;100.00;100309.56;5063659;28;20051;-84
2022/01/27 09:17:38;;;;;;;29.13;11.50;;;;;;;-2.42;100.00;100322.97;5074805;28;20080;-85
2022/01/27 09:20:06;;;;;;;30.00;11.47;;;;;;;-2.39;100.00;100319.28;5068579;28;20095;-85
2022/01/27 09:22:42;;;;;;;31.77;11.80;;;;;;;-2.38;100.00;100305.03;5117491;22;20081;-84
2022/01/27 09:25:18;;;;;;;36.30;11.97;;;;;;;-2.35;100.00;100291.56;5054289;28;20088;-84
2022/01/27 09:27:48;;;;;;;39.73;12.73;;;;;;;-2.37;100.00;100285.44;5050101;28;20075;-84
2022/01/27 09:30:18;;;;;;;41.20;14.20;;;;;;;-2.27;100.00;100307.16;5043387;28;20131;-84
2022/01/27 09:32:46;;;;;;;37.67;13.47;;;;;;;-2.18;100.00;100312.91;5051147;28;20045;-84
2022/01/27 09:35:13;;;;;;;38.93;12.87;;;;;;;-2.18;100.00;100302.25;5044084;28;20132;-85
2022/01/27 09:37:47;;;;;;;42.30;13.97;;;;;;;-2.17;100.00;100304.00;5045518;28;20053;-86
2022/01/27 09:40:15;;;;;;;38.70;13.23;;;;;;;-2.16;100.00;100319.00;5047013;28;20085;-83
2022/01/27 09:42:48;;;;;;;43.77;13.57;;;;;;;-2.21;100.00;100317.53;5053566;28;20040;-83
2022/01/27 09:45:28;;;;;;;43.03;13.17;;;;;;;-2.14;100.00;100308.28;5041755;28;20156;-83
2022/01/27 09:48:02;;;;;;;40.00;13.13;;;;;;;-2.11;100.00;100308.13;5051434;28;20492;-83
2022/01/27 09:50:47;;;;;;;50.50;16.07;;;;;;;-2.12;100.00;100285.09;5038437;28;20060;-84
2022/01/27 09:53:19;;;;;;;51.77;14.10;;;;;;;-2.01;100.00;100280.09;5054957;28;20057;-83
2022/01/27 09:55:52;;;;;;;41.23;13.13;;;;;;;-2.04;100.00;100285.56;5050465;28;20072;-84
2022/01/27 09:58:21;;;;;;;41.57;13.77;;;;;;;-2.04;100.00;100287.38;5040793;28;20143;-84
2022/01/27 10:00:57;;;;;;;43.80;15.33;;;;;;;-1.89;100.00;100289.25;5043273;28;20065;-83
2022/01/27 10:03:30;;;;;;;44.63;14.77;;;;;;;-1.93;100.00;100261.03;5038078;28;20077;-84
2022/01/27 10:06:31;;;;;;;35.23;12.57;;;;;;;-1.72;100.00;100271.53;5043762;28;20057;-84
2022/01/27 10:12:24;;;;;;;37.80;12.27;;;;;;;-1.57;100.00;100280.56;5037402;28;20415;-84
2022/01/27 10:18:20;;;;;;;43.07;13.27;;;;;;;-1.48;100.00;100272.91;5022392;28;20049;-84
2022/01/27 10:20:50;;;;;;;;;;;;;;;-1.33;100.00;100279.25;5048836;28;20480;-84
2022/01/27 10:23:33;;;;;;;37.63;12.63;;;;;;;-1.39;100.00;100249.38;5052168;28;20012;-84
2022/01/27 10:26:12;;;;;;;30.50;10.80;;;;;;;-1.28;100.00;100277.22;5080576;23;20037;-84
2022/01/27 10:28:47;;;;;;;31.40;10.63;;;;;;;-1.19;100.00;100262.53;5048573;28;20041;-84
2022/01/27 10:31:31;;;;;;;37.73;12.80;;;;;;;-1.21;100.00;100266.22;5054015;28;20060;-84
2022/01/27 10:34:07;;;;;;;37.03;13.17;;;;;;;-1.12;100.00;100263.88;5041691;28;20919;-84
2022/01/27 10:37:01;;;;;;;27.00;9.93;;;;;;;-1.11;100.00;100259.44;5055770;28;20084;-83
2022/01/27 10:39:37;;;;;;;34.37;11.57;;;;;;;-1.17;100.00;100252.63;5052604;28;20128;-84
2022/01/27 10:42:21;;;;;;;30.67;11.17;;;;;;;-1.08;100.00;100235.25;5053043;28;20045;-83
2022/01/27 10:44:57;;;;;;;37.07;11.70;;;;;;;-0.94;100.00;100253.16;5051978;28;20049;-84
2022/01/27 10:47:39;;;;;;;39.80;12.02;;;;;;;-0.88;100.00;100241.28;5052067;28;20044;-82
2022/01/27 10:50:47;;;;;;;26.67;11.83;;;;;;;-0.78;100.00;100253.19;5048727;28;20056;-83
2022/01/27 10:53:21;;;;;;;29.47;11.10;;;;;;;-0.68;100.00;100248.16;5044514;28;20057;-83
2022/01/27 10:56:04;;;;;;;36.25;11.73;;;;;;;-0.69;100.00;100246.44;5056678;28;20055;-84
2022/01/27 10:58:38;;;;;;;32.50;11.85;;;;;;;-0.67;100.00;100252.56;5045601;28;20080;-83
2022/01/27 11:01:08;;;;;;;28.95;11.07;;;;;;;-0.79;100.00;100225.59;5036488;28;20503;-84
2022/01/27 11:03:35;;;;;;;28.85;11.77;;;;;;;-0.56;100.00;100245.69;5045970;28;20122;-83
2022/01/27 11:06:08;;;;;;;29.17;11.85;;;;;;;-0.62;100.00;100221.13;5027248;28;20049;-84
2022/01/27 11:08:36;;;;;;;34.22;11.40;;;;;;;-0.39;100.00;100236.69;5041470;28;20052;-84
2022/01/27 11:11:14;;;;;;;31.60;12.40;;;;;;;-0.46;100.00;100226.44;5043753;28;20061;-83
2022/01/27 11:13:49;;;;;;;38.25;12.98;;;;;;;-0.46;100.00;100229.97;5045043;28;20052;-83
2022/01/27 11:16:18;;;;;;;31.63;11.10;;;;;;;-0.34;100.00;100236.41;5033225;28;20069;-83
2022/01/27 11:19:00;;;;;;;37.97;12.25;;;;;;;-0.33;100.00;100227.47;5032253;28;20055;-82
2022/01/27 11:21:34;;;;;;;30.00;11.88;;;;;;;-0.38;100.00;100203.69;5037948;28;20059;-83
2022/01/27 11:24:08;;;;;;;33.53;11.65;;;;;;;-0.37;100.00;100205.38;5032027;28;20114;-83
2022/01/27 11:26:40;;;;;;;27.95;9.80;;;;;;;-0.23;100.00;100215.25;5044942;28;20053;-83
2022/01/27 11:29:17;;;;;;;30.10;11.02;;;;;;;-0.26;100.00;100218.13;5063373;23;20044;-83
2022/01/27 11:31:58;;;;;;;26.05;10.57;;;;;;;-0.11;100.00;100200.31;5071603;28;20484;-83
2022/01/27 11:34:44;;;;;;;28.13;11.05;;;;;;;-0.04;100.00;100211.53;5066297;28;20058;-83
2022/01/27 11:37:12;;;;;;;26.20;11.15;;;;;;;-0.18;100.00;100207.00;5061763;28;20099;-82
2022/01/27 11:39:48;;;;;;;27.65;10.00;;;;;;;-0.19;100.00;100211.47;5050734;28;20044;-83